sensor_id;sensor_type;location;lat;lon;timestamp;P1;durP1;ratioP1;P2;durP2;ratioP2
69765;SDS011;57039;48.014;21.384;2024-03-02T00:00:16;24.45;;;15.45;;
69765;SDS011;57039;48.014;21.384;2024-03-02T00:01:19;22.57;;;15.00;;
69765;SDS011;57039;48.014;21.384;2024-03-02T00:02:22;23.90;;;15.17;;
69765;SDS011;57039;48.014;21.384;2024-03-02T00:03:25;27.30;;;14.98;;
69765;SDS011;57039;48.014;21.384;2024-03-02T00:04:28;25.35;;;14.60;;
69765;SDS011;57039;48.014;21.384;2024-03-02T00:05:30;26.70;;;15.73;;
69765;SDS011;57039;48.014;21.384;2024-03-02T00:06:34;26.17;;;15.57;;
69765;SDS011;57039;48.014;21.384;2024-03-02T00:07:37;23.20;;;15.20;;
69765;SDS011;57039;48.014;21.384;2024-03-02T00:08:43;24.12;;;15.57;;
69765;SDS011;57039;48.014;21.384;2024-03-02T00:09:46;22.67;;;14.57;;
69765;SDS011;57039;48.014;21.384;2024-03-02T00:10:49;26.17;;;15.45;;
69765;SDS011;57039;48.014;21.384;2024-03-02T00:11:53;25.77;;;15.10;;
69765;SDS011;57039;48.014;21.384;2024-03-02T00:12:55;27.50;;;15.37;;
69765;SDS011;57039;48.014;21.384;2024-03-02T00:13:59;25.48;;;15.10;;
69765;SDS011;57039;48.014;21.384;2024-03-02T00:15:06;25.75;;;16.08;;
69765;SDS011;57039;48.014;21.384;2024-03-02T00:16:29;26.52;;;16.27;;
69765;SDS011;57039;48.014;21.384;2024-03-02T00:17:35;24.77;;;15.50;;
69765;SDS011;57039;48.014;21.384;2024-03-02T00:18:38;26.85;;;15.63;;
69765;SDS011;57039;48.014;21.384;2024-03-02T00:19:41;26.15;;;15.48;;
69765;SDS011;57039;48.014;21.384;2024-03-02T00:20:44;22.58;;;14.85;;
69765;SDS011;57039;48.014;21.384;2024-03-02T00:21:47;24.50;;;14.82;;
69765;SDS011;57039;48.014;21.384;2024-03-02T00:22:50;22.13;;;14.50;;
69765;SDS011;57039;48.014;21.384;2024-03-02T00:23:53;23.10;;;15.10;;
69765;SDS011;57039;48.014;21.384;2024-03-02T00:24:56;23.85;;;14.73;;
69765;SDS011;57039;48.014;21.384;2024-03-02T00:25:59;24.52;;;15.20;;
69765;SDS011;57039;48.014;21.384;2024-03-02T00:27:04;24.40;;;15.82;;
69765;SDS011;57039;48.014;21.384;2024-03-02T00:28:11;24.25;;;15.93;;
69765;SDS011;57039;48.014;21.384;2024-03-02T00:29:17;25.92;;;14.90;;
69765;SDS011;57039;48.014;21.384;2024-03-02T00:31:47;22.40;;;14.32;;
69765;SDS011;57039;48.014;21.384;2024-03-02T00:32:50;25.35;;;15.38;;
69765;SDS011;57039;48.014;21.384;2024-03-02T00:34:04;26.00;;;15.00;;
69765;SDS011;57039;48.014;21.384;2024-03-02T00:35:08;27.27;;;15.00;;
69765;SDS011;57039;48.014;21.384;2024-03-02T00:36:13;25.25;;;15.55;;
69765;SDS011;57039;48.014;21.384;2024-03-02T00:37:17;29.02;;;15.98;;
69765;SDS011;57039;48.014;21.384;2024-03-02T00:38:20;26.33;;;16.75;;
69765;SDS011;57039;48.014;21.384;2024-03-02T00:39:24;26.70;;;15.93;;
69765;SDS011;57039;48.014;21.384;2024-03-02T00:40:27;27.50;;;15.13;;
69765;SDS011;57039;48.014;21.384;2024-03-02T00:41:32;25.90;;;15.85;;
69765;SDS011;57039;48.014;21.384;2024-03-02T00:42:35;24.98;;;15.38;;
69765;SDS011;57039;48.014;21.384;2024-03-02T00:44:59;27.23;;;15.57;;
69765;SDS011;57039;48.014;21.384;2024-03-02T00:46:02;24.97;;;15.20;;
69765;SDS011;57039;48.014;21.384;2024-03-02T00:47:05;25.10;;;15.27;;
69765;SDS011;57039;48.014;21.384;2024-03-02T00:48:08;27.40;;;16.35;;
69765;SDS011;57039;48.014;21.384;2024-03-02T00:49:18;27.67;;;16.33;;
69765;SDS011;57039;48.014;21.384;2024-03-02T00:50:22;27.62;;;16.12;;
69765;SDS011;57039;48.014;21.384;2024-03-02T00:51:33;27.30;;;16.12;;
69765;SDS011;57039;48.014;21.384;2024-03-02T00:52:37;31.10;;;16.45;;
69765;SDS011;57039;48.014;21.384;2024-03-02T00:53:40;27.55;;;16.20;;
69765;SDS011;57039;48.014;21.384;2024-03-02T00:54:43;27.05;;;16.20;;
69765;SDS011;57039;48.014;21.384;2024-03-02T00:55:47;27.20;;;16.13;;
69765;SDS011;57039;48.014;21.384;2024-03-02T00:56:51;29.80;;;16.93;;
69765;SDS011;57039;48.014;21.384;2024-03-02T00:57:58;24.50;;;15.38;;
69765;SDS011;57039;48.014;21.384;2024-03-02T00:59:01;26.10;;;15.85;;
69765;SDS011;57039;48.014;21.384;2024-03-02T01:00:04;27.42;;;15.68;;
69765;SDS011;57039;48.014;21.384;2024-03-02T01:01:13;26.27;;;14.82;;
69765;SDS011;57039;48.014;21.384;2024-03-02T01:02:17;29.60;;;16.70;;
69765;SDS011;57039;48.014;21.384;2024-03-02T01:03:22;26.15;;;15.75;;
69765;SDS011;57039;48.014;21.384;2024-03-02T01:04:25;24.67;;;15.52;;
69765;SDS011;57039;48.014;21.384;2024-03-02T01:05:28;26.10;;;15.68;;
69765;SDS011;57039;48.014;21.384;2024-03-02T01:06:31;25.73;;;15.10;;
69765;SDS011;57039;48.014;21.384;2024-03-02T01:07:34;25.13;;;15.07;;
69765;SDS011;57039;48.014;21.384;2024-03-02T01:08:37;25.85;;;15.68;;
69765;SDS011;57039;48.014;21.384;2024-03-02T01:09:41;27.27;;;15.55;;
69765;SDS011;57039;48.014;21.384;2024-03-02T01:10:44;28.80;;;16.08;;
69765;SDS011;57039;48.014;21.384;2024-03-02T01:11:47;23.85;;;15.18;;
69765;SDS011;57039;48.014;21.384;2024-03-02T01:12:50;23.50;;;15.55;;
69765;SDS011;57039;48.014;21.384;2024-03-02T01:13:52;28.15;;;15.43;;
69765;SDS011;57039;48.014;21.384;2024-03-02T01:14:55;28.60;;;16.40;;
69765;SDS011;57039;48.014;21.384;2024-03-02T01:15:58;25.52;;;15.40;;
69765;SDS011;57039;48.014;21.384;2024-03-02T01:17:02;26.17;;;15.70;;
69765;SDS011;57039;48.014;21.384;2024-03-02T01:18:06;27.83;;;15.67;;
69765;SDS011;57039;48.014;21.384;2024-03-02T01:19:10;23.15;;;14.95;;
69765;SDS011;57039;48.014;21.384;2024-03-02T01:20:13;28.17;;;15.70;;
69765;SDS011;57039;48.014;21.384;2024-03-02T01:21:16;24.02;;;15.48;;
69765;SDS011;57039;48.014;21.384;2024-03-02T01:22:19;25.45;;;15.40;;
69765;SDS011;57039;48.014;21.384;2024-03-02T01:23:27;27.35;;;16.65;;
69765;SDS011;57039;48.014;21.384;2024-03-02T01:24:30;26.98;;;15.55;;
69765;SDS011;57039;48.014;21.384;2024-03-02T01:25:33;25.23;;;16.20;;
69765;SDS011;57039;48.014;21.384;2024-03-02T01:26:36;26.55;;;16.50;;
69765;SDS011;57039;48.014;21.384;2024-03-02T01:27:39;24.20;;;15.07;;
69765;SDS011;57039;48.014;21.384;2024-03-02T01:28:41;26.30;;;15.83;;
69765;SDS011;57039;48.014;21.384;2024-03-02T01:29:44;28.02;;;15.80;;
69765;SDS011;57039;48.014;21.384;2024-03-02T01:30:47;25.98;;;16.52;;
69765;SDS011;57039;48.014;21.384;2024-03-02T01:31:50;26.75;;;15.98;;
69765;SDS011;57039;48.014;21.384;2024-03-02T01:32:54;28.23;;;15.82;;
69765;SDS011;57039;48.014;21.384;2024-03-02T01:33:57;26.23;;;15.95;;
69765;SDS011;57039;48.014;21.384;2024-03-02T01:35:00;29.58;;;17.00;;
69765;SDS011;57039;48.014;21.384;2024-03-02T01:36:03;29.77;;;16.58;;
69765;SDS011;57039;48.014;21.384;2024-03-02T01:37:06;30.45;;;16.85;;
69765;SDS011;57039;48.014;21.384;2024-03-02T01:38:09;28.83;;;15.67;;
69765;SDS011;57039;48.014;21.384;2024-03-02T01:39:12;28.57;;;16.17;;
69765;SDS011;57039;48.014;21.384;2024-03-02T01:40:15;26.12;;;15.82;;
69765;SDS011;57039;48.014;21.384;2024-03-02T01:41:18;25.85;;;16.10;;
69765;SDS011;57039;48.014;21.384;2024-03-02T01:42:21;27.35;;;16.62;;
69765;SDS011;57039;48.014;21.384;2024-03-02T01:43:25;24.55;;;15.88;;
69765;SDS011;57039;48.014;21.384;2024-03-02T01:44:28;32.35;;;15.35;;
69765;SDS011;57039;48.014;21.384;2024-03-02T01:45:31;24.83;;;15.23;;
69765;SDS011;57039;48.014;21.384;2024-03-02T01:46:35;25.83;;;15.93;;
69765;SDS011;57039;48.014;21.384;2024-03-02T01:47:38;30.15;;;16.83;;
69765;SDS011;57039;48.014;21.384;2024-03-02T01:48:41;26.97;;;15.63;;
69765;SDS011;57039;48.014;21.384;2024-03-02T01:49:44;27.33;;;15.80;;
69765;SDS011;57039;48.014;21.384;2024-03-02T01:50:47;26.00;;;15.60;;
69765;SDS011;57039;48.014;21.384;2024-03-02T01:51:50;24.65;;;15.90;;
69765;SDS011;57039;48.014;21.384;2024-03-02T01:52:54;28.75;;;15.70;;
69765;SDS011;57039;48.014;21.384;2024-03-02T01:54:00;25.88;;;15.55;;
69765;SDS011;57039;48.014;21.384;2024-03-02T01:55:03;25.75;;;16.33;;
69765;SDS011;57039;48.014;21.384;2024-03-02T01:56:07;25.75;;;15.88;;
69765;SDS011;57039;48.014;21.384;2024-03-02T01:57:10;26.77;;;15.57;;
69765;SDS011;57039;48.014;21.384;2024-03-02T01:58:13;26.85;;;15.95;;
69765;SDS011;57039;48.014;21.384;2024-03-02T01:59:16;28.80;;;16.57;;
69765;SDS011;57039;48.014;21.384;2024-03-02T02:00:20;29.20;;;18.33;;
69765;SDS011;57039;48.014;21.384;2024-03-02T02:01:23;25.67;;;15.18;;
69765;SDS011;57039;48.014;21.384;2024-03-02T02:02:26;27.45;;;16.65;;
69765;SDS011;57039;48.014;21.384;2024-03-02T02:03:29;30.15;;;17.60;;
69765;SDS011;57039;48.014;21.384;2024-03-02T02:04:32;28.15;;;16.42;;
69765;SDS011;57039;48.014;21.384;2024-03-02T02:05:36;28.00;;;16.23;;
69765;SDS011;57039;48.014;21.384;2024-03-02T02:06:40;26.58;;;16.25;;
69765;SDS011;57039;48.014;21.384;2024-03-02T02:07:43;25.95;;;15.35;;
69765;SDS011;57039;48.014;21.384;2024-03-02T02:08:46;24.37;;;14.48;;
69765;SDS011;57039;48.014;21.384;2024-03-02T02:09:49;31.73;;;16.87;;
69765;SDS011;57039;48.014;21.384;2024-03-02T02:10:52;23.77;;;15.53;;
69765;SDS011;57039;48.014;21.384;2024-03-02T02:11:55;26.55;;;15.40;;
69765;SDS011;57039;48.014;21.384;2024-03-02T02:12:58;25.10;;;15.30;;
69765;SDS011;57039;48.014;21.384;2024-03-02T02:14:02;25.50;;;15.73;;
69765;SDS011;57039;48.014;21.384;2024-03-02T02:16:31;25.20;;;16.20;;
69765;SDS011;57039;48.014;21.384;2024-03-02T02:17:34;28.15;;;16.12;;
69765;SDS011;57039;48.014;21.384;2024-03-02T02:18:37;27.73;;;15.88;;
69765;SDS011;57039;48.014;21.384;2024-03-02T02:19:40;26.83;;;16.52;;
69765;SDS011;57039;48.014;21.384;2024-03-02T02:20:43;25.77;;;15.90;;
69765;SDS011;57039;48.014;21.384;2024-03-02T02:21:46;24.33;;;15.07;;
69765;SDS011;57039;48.014;21.384;2024-03-02T02:22:56;26.10;;;15.27;;
69765;SDS011;57039;48.014;21.384;2024-03-02T02:24:06;26.12;;;14.77;;
69765;SDS011;57039;48.014;21.384;2024-03-02T02:25:09;25.42;;;16.08;;
69765;SDS011;57039;48.014;21.384;2024-03-02T02:26:12;26.40;;;15.90;;
69765;SDS011;57039;48.014;21.384;2024-03-02T02:27:15;25.23;;;15.57;;
69765;SDS011;57039;48.014;21.384;2024-03-02T02:28:18;26.60;;;15.77;;
69765;SDS011;57039;48.014;21.384;2024-03-02T02:29:21;25.27;;;14.50;;
69765;SDS011;57039;48.014;21.384;2024-03-02T02:30:28;26.25;;;16.48;;
69765;SDS011;57039;48.014;21.384;2024-03-02T02:31:41;24.60;;;15.67;;
69765;SDS011;57039;48.014;21.384;2024-03-02T02:32:44;28.00;;;15.93;;
69765;SDS011;57039;48.014;21.384;2024-03-02T02:33:47;24.85;;;15.13;;
69765;SDS011;57039;48.014;21.384;2024-03-02T02:34:53;26.00;;;16.05;;
69765;SDS011;57039;48.014;21.384;2024-03-02T02:35:56;27.05;;;16.45;;
69765;SDS011;57039;48.014;21.384;2024-03-02T02:36:59;27.13;;;16.77;;
69765;SDS011;57039;48.014;21.384;2024-03-02T02:38:03;27.30;;;15.05;;
69765;SDS011;57039;48.014;21.384;2024-03-02T02:39:07;25.73;;;15.52;;
69765;SDS011;57039;48.014;21.384;2024-03-02T02:40:14;34.28;;;15.73;;
69765;SDS011;57039;48.014;21.384;2024-03-02T02:41:17;29.00;;;15.68;;
69765;SDS011;57039;48.014;21.384;2024-03-02T02:42:20;25.50;;;14.70;;
69765;SDS011;57039;48.014;21.384;2024-03-02T02:43:23;25.33;;;15.27;;
69765;SDS011;57039;48.014;21.384;2024-03-02T02:44:26;28.55;;;16.42;;
69765;SDS011;57039;48.014;21.384;2024-03-02T02:45:29;25.12;;;15.63;;
69765;SDS011;57039;48.014;21.384;2024-03-02T02:46:32;24.75;;;14.90;;
69765;SDS011;57039;48.014;21.384;2024-03-02T02:47:35;27.30;;;15.57;;
69765;SDS011;57039;48.014;21.384;2024-03-02T02:48:38;24.33;;;14.70;;
69765;SDS011;57039;48.014;21.384;2024-03-02T02:49:41;23.80;;;15.00;;
69765;SDS011;57039;48.014;21.384;2024-03-02T02:50:44;24.30;;;15.73;;
69765;SDS011;57039;48.014;21.384;2024-03-02T02:51:47;23.92;;;15.55;;
69765;SDS011;57039;48.014;21.384;2024-03-02T02:52:50;23.83;;;14.85;;
69765;SDS011;57039;48.014;21.384;2024-03-02T02:53:53;25.03;;;15.03;;
69765;SDS011;57039;48.014;21.384;2024-03-02T02:54:56;25.00;;;16.55;;
69765;SDS011;57039;48.014;21.384;2024-03-02T02:55:59;27.30;;;15.60;;
69765;SDS011;57039;48.014;21.384;2024-03-02T02:57:02;25.77;;;15.95;;
69765;SDS011;57039;48.014;21.384;2024-03-02T02:58:05;26.30;;;15.60;;
69765;SDS011;57039;48.014;21.384;2024-03-02T02:59:07;26.30;;;15.35;;
69765;SDS011;57039;48.014;21.384;2024-03-02T03:00:12;25.30;;;15.35;;
69765;SDS011;57039;48.014;21.384;2024-03-02T03:01:21;24.58;;;15.50;;
69765;SDS011;57039;48.014;21.384;2024-03-02T03:02:24;26.48;;;16.02;;
69765;SDS011;57039;48.014;21.384;2024-03-02T03:03:30;26.23;;;15.63;;
69765;SDS011;57039;48.014;21.384;2024-03-02T03:04:33;24.93;;;15.03;;
69765;SDS011;57039;48.014;21.384;2024-03-02T03:05:36;23.73;;;14.63;;
69765;SDS011;57039;48.014;21.384;2024-03-02T03:06:39;26.48;;;15.07;;
69765;SDS011;57039;48.014;21.384;2024-03-02T03:07:42;21.77;;;14.63;;
69765;SDS011;57039;48.014;21.384;2024-03-02T03:08:47;23.48;;;14.90;;
69765;SDS011;57039;48.014;21.384;2024-03-02T03:09:50;25.05;;;15.10;;
69765;SDS011;57039;48.014;21.384;2024-03-02T03:10:53;23.45;;;15.20;;
69765;SDS011;57039;48.014;21.384;2024-03-02T03:11:56;24.83;;;15.48;;
69765;SDS011;57039;48.014;21.384;2024-03-02T03:12:59;24.77;;;15.07;;
69765;SDS011;57039;48.014;21.384;2024-03-02T03:14:02;23.67;;;14.80;;
69765;SDS011;57039;48.014;21.384;2024-03-02T03:15:05;26.77;;;15.53;;
69765;SDS011;57039;48.014;21.384;2024-03-02T03:16:09;26.12;;;14.95;;
69765;SDS011;57039;48.014;21.384;2024-03-02T03:17:12;24.58;;;15.32;;
69765;SDS011;57039;48.014;21.384;2024-03-02T03:18:15;24.50;;;14.87;;
69765;SDS011;57039;48.014;21.384;2024-03-02T03:19:18;23.90;;;14.43;;
69765;SDS011;57039;48.014;21.384;2024-03-02T03:20:20;25.37;;;15.07;;
69765;SDS011;57039;48.014;21.384;2024-03-02T03:21:24;24.95;;;15.20;;
69765;SDS011;57039;48.014;21.384;2024-03-02T03:22:27;22.75;;;14.02;;
69765;SDS011;57039;48.014;21.384;2024-03-02T03:23:30;26.92;;;15.20;;
69765;SDS011;57039;48.014;21.384;2024-03-02T03:24:33;24.37;;;13.80;;
69765;SDS011;57039;48.014;21.384;2024-03-02T03:25:35;24.67;;;14.70;;
69765;SDS011;57039;48.014;21.384;2024-03-02T03:26:38;27.25;;;15.27;;
69765;SDS011;57039;48.014;21.384;2024-03-02T03:27:41;23.52;;;15.10;;
69765;SDS011;57039;48.014;21.384;2024-03-02T03:28:44;26.73;;;15.57;;
69765;SDS011;57039;48.014;21.384;2024-03-02T03:29:47;25.30;;;14.95;;
69765;SDS011;57039;48.014;21.384;2024-03-02T03:30:50;25.40;;;14.60;;
69765;SDS011;57039;48.014;21.384;2024-03-02T03:31:53;22.20;;;14.27;;
69765;SDS011;57039;48.014;21.384;2024-03-02T03:32:56;23.45;;;14.93;;
69765;SDS011;57039;48.014;21.384;2024-03-02T03:33:59;23.90;;;14.65;;
69765;SDS011;57039;48.014;21.384;2024-03-02T03:35:02;23.53;;;14.47;;
69765;SDS011;57039;48.014;21.384;2024-03-02T03:36:06;24.57;;;14.43;;
69765;SDS011;57039;48.014;21.384;2024-03-02T03:37:09;23.95;;;14.45;;
69765;SDS011;57039;48.014;21.384;2024-03-02T03:38:12;24.40;;;14.55;;
69765;SDS011;57039;48.014;21.384;2024-03-02T03:39:15;21.48;;;13.90;;
69765;SDS011;57039;48.014;21.384;2024-03-02T03:40:18;24.40;;;14.32;;
69765;SDS011;57039;48.014;21.384;2024-03-02T03:41:21;26.25;;;14.20;;
69765;SDS011;57039;48.014;21.384;2024-03-02T03:42:24;24.98;;;14.48;;
69765;SDS011;57039;48.014;21.384;2024-03-02T03:43:26;21.48;;;13.95;;
69765;SDS011;57039;48.014;21.384;2024-03-02T03:44:29;21.83;;;13.98;;
69765;SDS011;57039;48.014;21.384;2024-03-02T03:45:32;21.47;;;14.07;;
69765;SDS011;57039;48.014;21.384;2024-03-02T03:46:35;23.23;;;14.50;;
69765;SDS011;57039;48.014;21.384;2024-03-02T03:47:39;22.08;;;14.07;;
69765;SDS011;57039;48.014;21.384;2024-03-02T03:48:42;21.70;;;13.68;;
69765;SDS011;57039;48.014;21.384;2024-03-02T03:49:45;22.25;;;14.35;;
69765;SDS011;57039;48.014;21.384;2024-03-02T03:50:48;24.90;;;14.27;;
69765;SDS011;57039;48.014;21.384;2024-03-02T03:51:51;23.02;;;14.85;;
69765;SDS011;57039;48.014;21.384;2024-03-02T03:52:54;22.70;;;14.07;;
69765;SDS011;57039;48.014;21.384;2024-03-02T03:53:57;24.55;;;14.20;;
69765;SDS011;57039;48.014;21.384;2024-03-02T03:54:59;26.15;;;14.70;;
69765;SDS011;57039;48.014;21.384;2024-03-02T03:56:03;24.27;;;14.57;;
69765;SDS011;57039;48.014;21.384;2024-03-02T03:57:06;25.17;;;14.93;;
69765;SDS011;57039;48.014;21.384;2024-03-02T03:58:09;25.45;;;15.38;;
69765;SDS011;57039;48.014;21.384;2024-03-02T03:59:12;25.90;;;16.42;;
69765;SDS011;57039;48.014;21.384;2024-03-02T04:00:15;29.37;;;18.77;;
69765;SDS011;57039;48.014;21.384;2024-03-02T04:01:18;46.10;;;25.98;;
69765;SDS011;57039;48.014;21.384;2024-03-02T04:02:22;46.67;;;27.33;;
69765;SDS011;57039;48.014;21.384;2024-03-02T04:03:27;41.97;;;25.52;;
69765;SDS011;57039;48.014;21.384;2024-03-02T04:04:30;43.53;;;24.40;;
69765;SDS011;57039;48.014;21.384;2024-03-02T04:05:33;41.15;;;24.60;;
69765;SDS011;57039;48.014;21.384;2024-03-02T04:06:35;51.70;;;27.07;;
69765;SDS011;57039;48.014;21.384;2024-03-02T04:07:38;71.23;;;35.40;;
69765;SDS011;57039;48.014;21.384;2024-03-02T04:08:43;87.32;;;40.72;;
69765;SDS011;57039;48.014;21.384;2024-03-02T04:09:45;87.22;;;40.88;;
69765;SDS011;57039;48.014;21.384;2024-03-02T04:10:48;95.45;;;43.50;;
69765;SDS011;57039;48.014;21.384;2024-03-02T04:11:52;91.55;;;46.53;;
69765;SDS011;57039;48.014;21.384;2024-03-02T04:12:55;82.50;;;44.20;;
69765;SDS011;57039;48.014;21.384;2024-03-02T04:13:57;71.90;;;40.15;;
69765;SDS011;57039;48.014;21.384;2024-03-02T04:15:00;64.57;;;36.40;;
69765;SDS011;57039;48.014;21.384;2024-03-02T04:16:04;52.55;;;30.12;;
69765;SDS011;57039;48.014;21.384;2024-03-02T04:17:07;43.57;;;25.97;;
69765;SDS011;57039;48.014;21.384;2024-03-02T04:18:10;38.20;;;21.63;;
69765;SDS011;57039;48.014;21.384;2024-03-02T04:19:14;35.40;;;20.67;;
69765;SDS011;57039;48.014;21.384;2024-03-02T04:20:16;31.45;;;18.45;;
69765;SDS011;57039;48.014;21.384;2024-03-02T04:21:19;27.65;;;16.42;;
69765;SDS011;57039;48.014;21.384;2024-03-02T04:22:22;28.33;;;14.87;;
69765;SDS011;57039;48.014;21.384;2024-03-02T04:23:27;24.17;;;14.75;;
69765;SDS011;57039;48.014;21.384;2024-03-02T04:24:30;21.90;;;13.62;;
69765;SDS011;57039;48.014;21.384;2024-03-02T04:25:35;21.87;;;12.98;;
69765;SDS011;57039;48.014;21.384;2024-03-02T04:26:38;23.30;;;14.25;;
69765;SDS011;57039;48.014;21.384;2024-03-02T04:27:41;24.37;;;13.00;;
69765;SDS011;57039;48.014;21.384;2024-03-02T04:28:44;23.90;;;13.47;;
69765;SDS011;57039;48.014;21.384;2024-03-02T04:29:47;20.73;;;12.90;;
69765;SDS011;57039;48.014;21.384;2024-03-02T04:30:50;20.40;;;12.82;;
69765;SDS011;57039;48.014;21.384;2024-03-02T04:31:52;22.37;;;13.02;;
69765;SDS011;57039;48.014;21.384;2024-03-02T04:32:57;21.55;;;12.98;;
69765;SDS011;57039;48.014;21.384;2024-03-02T04:34:00;20.92;;;13.32;;
69765;SDS011;57039;48.014;21.384;2024-03-02T04:35:03;20.85;;;13.18;;
69765;SDS011;57039;48.014;21.384;2024-03-02T04:36:11;19.95;;;13.88;;
69765;SDS011;57039;48.014;21.384;2024-03-02T04:37:15;21.80;;;13.75;;
69765;SDS011;57039;48.014;21.384;2024-03-02T04:38:19;22.67;;;14.43;;
69765;SDS011;57039;48.014;21.384;2024-03-02T04:39:23;21.13;;;13.67;;
69765;SDS011;57039;48.014;21.384;2024-03-02T04:40:28;23.75;;;13.70;;
69765;SDS011;57039;48.014;21.384;2024-03-02T04:41:31;25.25;;;14.70;;
69765;SDS011;57039;48.014;21.384;2024-03-02T04:42:34;26.90;;;15.68;;
69765;SDS011;57039;48.014;21.384;2024-03-02T04:43:38;28.10;;;15.60;;
69765;SDS011;57039;48.014;21.384;2024-03-02T04:44:40;26.52;;;15.07;;
69765;SDS011;57039;48.014;21.384;2024-03-02T04:45:43;30.62;;;16.27;;
69765;SDS011;57039;48.014;21.384;2024-03-02T04:46:46;32.50;;;16.52;;
69765;SDS011;57039;48.014;21.384;2024-03-02T04:47:49;34.40;;;17.70;;
69765;SDS011;57039;48.014;21.384;2024-03-02T04:48:52;33.53;;;18.67;;
69765;SDS011;57039;48.014;21.384;2024-03-02T04:49:58;35.03;;;18.40;;
69765;SDS011;57039;48.014;21.384;2024-03-02T04:51:01;36.42;;;18.80;;
69765;SDS011;57039;48.014;21.384;2024-03-02T04:52:04;44.00;;;22.00;;
69765;SDS011;57039;48.014;21.384;2024-03-02T04:53:07;52.62;;;25.12;;
69765;SDS011;57039;48.014;21.384;2024-03-02T04:54:10;54.13;;;24.60;;
69765;SDS011;57039;48.014;21.384;2024-03-02T04:55:13;47.65;;;23.23;;
69765;SDS011;57039;48.014;21.384;2024-03-02T04:56:31;46.70;;;22.10;;
69765;SDS011;57039;48.014;21.384;2024-03-02T04:57:34;43.75;;;21.73;;
69765;SDS011;57039;48.014;21.384;2024-03-02T04:58:37;48.13;;;22.70;;
69765;SDS011;57039;48.014;21.384;2024-03-02T04:59:41;48.97;;;25.07;;
69765;SDS011;57039;48.014;21.384;2024-03-02T05:00:43;43.20;;;22.80;;
69765;SDS011;57039;48.014;21.384;2024-03-02T05:01:48;38.75;;;19.98;;
69765;SDS011;57039;48.014;21.384;2024-03-02T05:02:51;37.75;;;19.35;;
69765;SDS011;57039;48.014;21.384;2024-03-02T05:03:54;102.90;;;51.30;;
69765;SDS011;57039;48.014;21.384;2024-03-02T05:04:57;149.12;;;75.60;;
69765;SDS011;57039;48.014;21.384;2024-03-02T05:06:00;154.00;;;78.97;;
69765;SDS011;57039;48.014;21.384;2024-03-02T05:07:02;141.40;;;75.53;;
69765;SDS011;57039;48.014;21.384;2024-03-02T05:08:05;118.45;;;61.92;;
69765;SDS011;57039;48.014;21.384;2024-03-02T05:09:08;98.15;;;52.28;;
69765;SDS011;57039;48.014;21.384;2024-03-02T05:10:12;71.60;;;41.10;;
69765;SDS011;57039;48.014;21.384;2024-03-02T05:11:14;61.77;;;34.90;;
69765;SDS011;57039;48.014;21.384;2024-03-02T05:12:36;48.30;;;27.10;;
69765;SDS011;57039;48.014;21.384;2024-03-02T05:13:45;42.60;;;24.10;;
69765;SDS011;57039;48.014;21.384;2024-03-02T05:14:47;35.33;;;21.15;;
69765;SDS011;57039;48.014;21.384;2024-03-02T05:15:51;31.80;;;19.05;;
69765;SDS011;57039;48.014;21.384;2024-03-02T05:16:54;30.88;;;18.58;;
69765;SDS011;57039;48.014;21.384;2024-03-02T05:17:56;29.45;;;17.52;;
69765;SDS011;57039;48.014;21.384;2024-03-02T05:19:00;29.35;;;17.62;;
69765;SDS011;57039;48.014;21.384;2024-03-02T05:20:04;25.62;;;16.80;;
69765;SDS011;57039;48.014;21.384;2024-03-02T05:21:09;28.80;;;17.77;;
69765;SDS011;57039;48.014;21.384;2024-03-02T05:22:12;29.67;;;17.57;;
69765;SDS011;57039;48.014;21.384;2024-03-02T05:23:14;28.42;;;17.45;;
69765;SDS011;57039;48.014;21.384;2024-03-02T05:24:17;31.85;;;18.37;;
69765;SDS011;57039;48.014;21.384;2024-03-02T05:25:20;35.22;;;18.48;;
69765;SDS011;57039;48.014;21.384;2024-03-02T05:26:23;28.98;;;18.27;;
69765;SDS011;57039;48.014;21.384;2024-03-02T05:27:26;29.23;;;17.90;;
69765;SDS011;57039;48.014;21.384;2024-03-02T05:28:29;28.85;;;17.83;;
69765;SDS011;57039;48.014;21.384;2024-03-02T05:29:32;29.48;;;17.70;;
69765;SDS011;57039;48.014;21.384;2024-03-02T05:30:35;28.35;;;17.98;;
69765;SDS011;57039;48.014;21.384;2024-03-02T05:31:38;33.67;;;19.53;;
69765;SDS011;57039;48.014;21.384;2024-03-02T05:32:41;32.87;;;20.60;;
69765;SDS011;57039;48.014;21.384;2024-03-02T05:33:44;29.65;;;18.15;;
69765;SDS011;57039;48.014;21.384;2024-03-02T05:34:47;29.12;;;18.85;;
69765;SDS011;57039;48.014;21.384;2024-03-02T05:35:50;37.88;;;20.20;;
69765;SDS011;57039;48.014;21.384;2024-03-02T05:36:53;31.15;;;18.85;;
69765;SDS011;57039;48.014;21.384;2024-03-02T05:37:56;30.27;;;18.40;;
69765;SDS011;57039;48.014;21.384;2024-03-02T05:38:59;32.20;;;19.05;;
69765;SDS011;57039;48.014;21.384;2024-03-02T05:40:02;34.00;;;19.87;;
69765;SDS011;57039;48.014;21.384;2024-03-02T05:41:05;30.50;;;19.55;;
69765;SDS011;57039;48.014;21.384;2024-03-02T05:42:09;32.40;;;19.43;;
69765;SDS011;57039;48.014;21.384;2024-03-02T05:43:12;32.70;;;19.13;;
69765;SDS011;57039;48.014;21.384;2024-03-02T05:44:14;34.58;;;20.33;;
69765;SDS011;57039;48.014;21.384;2024-03-02T05:45:17;31.27;;;19.60;;
69765;SDS011;57039;48.014;21.384;2024-03-02T05:46:20;31.17;;;19.70;;
69765;SDS011;57039;48.014;21.384;2024-03-02T05:47:25;32.58;;;19.67;;
69765;SDS011;57039;48.014;21.384;2024-03-02T05:48:28;32.90;;;19.50;;
69765;SDS011;57039;48.014;21.384;2024-03-02T05:49:31;34.70;;;20.20;;
69765;SDS011;57039;48.014;21.384;2024-03-02T05:50:34;31.17;;;18.87;;
69765;SDS011;57039;48.014;21.384;2024-03-02T05:51:38;32.80;;;19.77;;
69765;SDS011;57039;48.014;21.384;2024-03-02T05:52:41;30.67;;;19.53;;
69765;SDS011;57039;48.014;21.384;2024-03-02T05:53:43;30.43;;;19.50;;
69765;SDS011;57039;48.014;21.384;2024-03-02T05:54:46;32.33;;;20.25;;
69765;SDS011;57039;48.014;21.384;2024-03-02T05:55:49;35.35;;;21.70;;
69765;SDS011;57039;48.014;21.384;2024-03-02T05:56:57;34.42;;;21.35;;
69765;SDS011;57039;48.014;21.384;2024-03-02T05:58:19;34.15;;;21.85;;
69765;SDS011;57039;48.014;21.384;2024-03-02T05:59:25;33.30;;;20.25;;
69765;SDS011;57039;48.014;21.384;2024-03-02T06:00:28;31.58;;;19.98;;
69765;SDS011;57039;48.014;21.384;2024-03-02T06:01:31;32.28;;;21.15;;
69765;SDS011;57039;48.014;21.384;2024-03-02T06:02:34;31.95;;;20.60;;
69765;SDS011;57039;48.014;21.384;2024-03-02T06:03:41;33.13;;;21.13;;
69765;SDS011;57039;48.014;21.384;2024-03-02T06:04:48;31.10;;;20.57;;
69765;SDS011;57039;48.014;21.384;2024-03-02T06:05:50;32.50;;;19.85;;
69765;SDS011;57039;48.014;21.384;2024-03-02T06:06:54;31.80;;;19.67;;
69765;SDS011;57039;48.014;21.384;2024-03-02T06:07:58;36.33;;;21.33;;
69765;SDS011;57039;48.014;21.384;2024-03-02T06:09:01;34.88;;;21.10;;
69765;SDS011;57039;48.014;21.384;2024-03-02T06:10:10;32.47;;;19.58;;
69765;SDS011;57039;48.014;21.384;2024-03-02T06:11:16;33.60;;;21.58;;